Airfield :
LOGIN :

Register | Disclaimer

   EN    FR    IT 

 










Legend :    VFR   Marginal VFR   IFR   Intensive IFR   Very Intensive IFR
Visi :
Ceiling :
>= 8 km
>= 3000ft
5 to 8 km
1000 to 3000 ft
1500m to 5 km
500 to 1000 ft
800 to 1500m
200 to 500 ft
< 800m
< 200 ft
Symbols :   Thunderstorms  Fog  Heavy snow  Heavy precipitations  Wind > 20 kt
SIGMETs :     Misc.  Thunderstorms  Icing  Turbulence  Mountain Waves  Volcanic Ashes






- Airport Elevation : 1682 ft
- IATA code : VIT


LEVT - Vitoria Gasteiz

CURRENT METAR :
  • 180800Z 22005KT 190V260 9999 SCT040 07/03 Q1023

EXPIRED METARs :
  • 180730Z 23004KT 200V260 9999 FEW022 BKN038 06/03 Q1023
  • 180700Z 21005KT 9999 FEW028 BKN040 05/02 Q1023
  • 180630Z 24005KT 9999 FEW028 BKN040 05/02 Q1023
  • 180600Z 24005KT 9999 BKN030 05/02 Q1023
  • 180530Z 24003KT 9999 BKN032 05/02 Q1023

TAF TAF LEVT
Valid from the 18 at 06:00 until the 19 at 06:00 UTC


180500Z 1806/1906 29005KT 9999 FEW020 BKN040 TX15/1814Z TN01/1905Z
TEMPO 1811/1821 01012KT



MET'MAP, your aeronautical weather chart ! - Copyright ORBIFLY December 2007 - Disclaimer

ORBIFLY MET'MAP TEAM :

Programming & Development : Alexandra Zaïnal
Concept & original design : Baudouin d'Aumeries
Assistance for programming : Marc-Olivier Méhu
Technical & hardware support : Manuel Goepfert

Contact : metmap@orbifly.com




SOURCES & CREDITS :

   NOAA